Hassi-Messaoud, Algeria
Current Conditions -  °F | °C
As of 1:30 PM on Thursday 30 Oct 2014 (Local Time) from DAUH Reporting Station
Clear Clear  
Wind Chill: 84°   Ceiling: Unl
Heat Index: 84°   Visibility: 6mi
Dew Point: 50°   Wind: 9mph
Humidity: 30%   Direction: 80°E
Pressure: 30.06"   Gusts: NA
Location:  31.68°N, 6.07°E
Report Text: DAUH 301230Z 08008KT CAVOK 29/10 Q1018
Loading
Personal Weather Stations






























Interactive Weather Map
Tropical Storm Tracking
New forecast layout! Learn more

10-Day Weather Forecast

Advertisements
Track Severe Weather on mobile